Terminal Aerodrome Forecast
Issued by NWS

Home | Current Version | Previous Version | Text Only | Print | Product List | Glossary On
Versions: 1 2 3 4 5 6 7 8 9 10 11 12 13 14 15 16
413
FTUS45 KABQ 290527
TAFFMN
TAF
KFMN 290527Z 2906/3006 29010G18KT P6SM BKN120
     FM290900 28011KT P6SM BKN130
     FM291500 29015G25KT P6SM SCT150
     FM292000 29022G32KT P6SM FEW250
     FM300300 29012KT P6SM FEW250=

USA.gov is the U.S. government's official web portal to all federal, state and local government web resources and services.